Bradford, Texas
Current Conditions -  °F | °C
As of 1:35 PM on Tuesday 21 Oct 2014 (Local Time) from KPSN Reporting Station
Clear Clear  
Wind Chill: 77°   Ceiling: Unl
Heat Index: 79°   Visibility: 10mi
Dew Point: 57°   Wind: 6mph
Humidity: 50%   Direction: 40°NE
Pressure: 30.08"   Gusts: NA
Location:  31.935°N, 95.7672°W
Report Text: KPSN 211835Z AUTO 04005KT 10SM CLR 25/13 A3008 RMK AO2 T02510140
Loading
Personal Weather Stations






























Interactive Weather Map
Tropical Storm Tracking
New forecast layout! Learn more

10-Day Weather Forecast

Advertisements
Track Severe Weather on mobile